createdAt,value
2023-02-19T00:00:32.685Z,5.65
2023-02-19T00:05:57.265Z,5.51
2023-02-19T00:11:04.405Z,5.54
2023-02-19T00:16:10.812Z,5.48
2023-02-19T00:21:16.345Z,5.21
2023-02-19T00:26:22.481Z,5.35
2023-02-19T00:31:32.517Z,4.90
2023-02-19T00:36:39.429Z,5.30
2023-02-19T00:41:46.634Z,5.17
2023-02-19T00:46:52.351Z,4.69
2023-02-19T00:51:57.452Z,4.71
2023-02-19T00:57:03.567Z,4.57
2023-02-19T01:02:09.050Z,4.69
2023-02-19T01:07:13.656Z,4.38
2023-02-19T01:12:19.518Z,4.74
2023-02-19T01:17:23.979Z,4.26
2023-02-19T01:22:29.179Z,4.36
2023-02-19T01:27:35.189Z,3.93
2023-02-19T01:32:39.791Z,4.02
2023-02-19T01:37:44.727Z,3.97
2023-02-19T01:42:50.838Z,4.12
2023-02-19T01:48:09.144Z,3.87
2023-02-19T01:53:16.070Z,3.88
2023-02-19T01:58:22.192Z,3.87
2023-02-19T02:03:26.993Z,3.89
2023-02-19T02:08:50.055Z,4.23
2023-02-19T02:14:00.856Z,3.98
2023-02-19T02:19:24.519Z,3.72
2023-02-19T02:24:53.515Z,4.27
2023-02-19T02:30:11.329Z,3.58
2023-02-19T02:35:20.401Z,3.92
2023-02-19T02:40:25.558Z,4.03
2023-02-19T02:45:37.640Z,3.52
2023-02-19T02:50:56.205Z,3.66
2023-02-19T02:56:02.011Z,3.44
2023-02-19T03:01:31.069Z,3.58
2023-02-19T03:06:38.060Z,3.82
2023-02-19T03:12:04.903Z,4.34
2023-02-19T03:17:34.531Z,4.57
2023-02-19T03:22:42.404Z,5.05
2023-02-19T03:27:49.670Z,4.70
2023-02-19T03:32:59.609Z,4.07
2023-02-19T03:38:10.819Z,3.96
2023-02-19T03:43:23.186Z,3.81
2023-02-19T03:48:38.658Z,3.62
2023-02-19T03:53:55.542Z,3.76
2023-02-19T03:59:06.912Z,3.85
2023-02-19T04:04:19.029Z,3.86
2023-02-19T04:09:26.147Z,3.74
2023-02-19T04:14:41.244Z,3.82
2023-02-19T04:19:49.891Z,3.79
2023-02-19T04:24:56.812Z,3.65
2023-02-19T04:30:01.827Z,3.69
2023-02-19T04:35:08.293Z,3.83
2023-02-19T04:40:12.926Z,3.77
2023-02-19T04:45:17.541Z,3.83
2023-02-19T04:50:23.488Z,3.96
2023-02-19T04:55:27.984Z,3.78
2023-02-19T05:00:34.123Z,3.70
2023-02-19T05:05:40.244Z,4.02
2023-02-19T05:10:45.161Z,3.87
2023-02-19T05:15:57.637Z,4.35
2023-02-19T05:21:03.724Z,3.97
2023-02-19T05:26:08.811Z,3.82
2023-02-19T05:31:14.295Z,3.96
2023-02-19T05:36:20.961Z,4.12
2023-02-19T05:41:26.732Z,3.84
2023-02-19T05:46:31.645Z,4.03
2023-02-19T05:51:38.637Z,4.40
2023-02-19T05:56:44.178Z,4.90
2023-02-19T06:01:50.126Z,5.10
2023-02-19T06:06:56.069Z,5.34
2023-02-19T06:12:00.554Z,5.69
2023-02-19T06:17:05.240Z,5.00
2023-02-19T06:22:11.654Z,4.87
2023-02-19T06:27:18.413Z,6.33
2023-02-19T06:32:23.568Z,6.10
2023-02-19T06:37:29.510Z,6.83
2023-02-19T06:42:33.947Z,7.06
2023-02-19T06:47:38.475Z,7.46
2023-02-19T06:52:44.347Z,7.27
2023-02-19T06:57:48.688Z,6.92
2023-02-19T07:02:56.711Z,7.02
2023-02-19T07:08:02.591Z,7.39
2023-02-19T07:13:07.233Z,7.22
2023-02-19T07:18:11.648Z,6.76
2023-02-19T07:23:17.495Z,6.77
2023-02-19T07:28:21.894Z,7.24
2023-02-19T07:33:26.332Z,5.61
2023-02-19T07:38:32.545Z,4.66
2023-02-19T07:43:38.347Z,4.21
2023-02-19T07:48:46.624Z,4.82
2023-02-19T07:53:52.982Z,5.00
2023-02-19T07:58:57.515Z,4.70
2023-02-19T08:04:03.034Z,4.92
2023-02-19T08:09:08.975Z,4.98
2023-02-19T08:14:16.139Z,5.54
2023-02-19T08:19:21.355Z,6.73
2023-02-19T08:24:27.427Z,6.00
2023-02-19T08:29:32.023Z,5.88
2023-02-19T08:34:37.178Z,6.18
2023-02-19T08:39:43.104Z,4.65
2023-02-19T08:44:47.281Z,5.03
2023-02-19T08:49:51.725Z,4.32
2023-02-19T08:54:58.293Z,4.96
2023-02-19T09:00:03.048Z,5.32
2023-02-19T09:05:09.272Z,5.93
2023-02-19T09:10:16.167Z,4.72
2023-02-19T09:15:21.862Z,5.46
2023-02-19T09:20:26.346Z,5.02
2023-02-19T09:25:32.265Z,5.98
2023-02-19T09:30:36.511Z,4.63
2023-02-19T09:35:41.697Z,4.85
2023-02-19T09:40:47.978Z,5.78
2023-02-19T09:46:03.065Z,6.60
2023-02-19T09:51:12.911Z,5.48
2023-02-19T09:56:19.456Z,5.05
2023-02-19T10:01:28.218Z,4.88
2023-02-19T10:06:36.389Z,4.31
2023-02-19T10:11:43.592Z,4.17
2023-02-19T10:16:53.886Z,3.71
2023-02-19T10:22:42.831Z,4.05
2023-02-19T10:28:45.216Z,3.62
2023-02-19T10:34:48.721Z,3.56
2023-02-19T10:40:16.892Z,3.69
2023-02-19T10:45:26.937Z,3.89
2023-02-19T10:50:34.470Z,3.53
2023-02-19T10:55:43.733Z,3.60
2023-02-19T11:00:49.763Z,3.48
2023-02-19T11:06:03.555Z,3.02
2023-02-19T11:11:24.888Z,2.99
2023-02-19T11:16:45.222Z,2.94
2023-02-19T11:21:50.341Z,3.10
2023-02-19T11:26:57.083Z,3.12
2023-02-19T11:32:23.596Z,2.29
2023-02-19T11:37:28.460Z,2.19
2023-02-19T11:42:43.034Z,2.22
2023-02-19T11:48:11.509Z,2.17
2023-02-19T11:53:23.168Z,2.03
2023-02-19T11:58:57.981Z,2.28
2023-02-19T12:04:32.652Z,2.50
2023-02-19T12:09:53.419Z,2.14
2023-02-19T12:15:28.928Z,2.19
2023-02-19T12:20:44.236Z,2.61
2023-02-19T12:25:59.849Z,2.83
2023-02-19T12:31:21.457Z,2.74
2023-02-19T12:36:38.612Z,2.97
2023-02-19T12:41:50.529Z,2.94
2023-02-19T12:46:59.154Z,2.70
2023-02-19T12:52:13.604Z,2.89
2023-02-19T12:57:23.078Z,2.52
2023-02-19T13:02:35.045Z,2.65
2023-02-19T13:07:49.996Z,2.82
2023-02-19T13:12:56.146Z,2.87
2023-02-19T13:18:01.875Z,2.46
2023-02-19T13:23:27.144Z,2.50
2023-02-19T13:28:49.074Z,2.37
2023-02-19T13:34:04.429Z,2.61
2023-02-19T13:44:29.503Z,2.79
2023-02-19T13:49:43.539Z,2.74
2023-02-19T13:54:49.302Z,2.61
2023-02-19T13:59:53.935Z,2.32
2023-02-19T14:05:01.591Z,2.43
2023-02-19T14:10:14.345Z,2.17
2023-02-19T14:15:45.389Z,2.04
2023-02-19T14:20:49.935Z,2.13
2023-02-19T14:26:01.298Z,2.48
2023-02-19T14:31:18.013Z,2.29
2023-02-19T14:36:35.909Z,2.29
2023-02-19T14:41:46.399Z,2.39
2023-02-19T14:46:58.627Z,2.21
2023-02-19T14:52:07.918Z,2.34
2023-02-19T14:57:23.337Z,2.35
2023-02-19T15:02:29.126Z,2.14
2023-02-19T15:07:35.733Z,2.36
2023-02-19T15:12:47.462Z,2.33
2023-02-19T15:17:52.864Z,2.13
2023-02-19T15:23:00.414Z,2.16
2023-02-19T15:28:22.193Z,2.18
2023-02-19T15:33:28.553Z,2.16
2023-02-19T15:38:34.479Z,2.30
2023-02-19T15:43:45.390Z,2.38
2023-02-19T15:48:55.658Z,2.63
2023-02-19T15:54:10.105Z,2.47
2023-02-19T15:59:23.355Z,2.45
2023-02-19T16:04:28.457Z,2.45
2023-02-19T16:09:35.070Z,2.49
2023-02-19T16:14:41.127Z,2.57
2023-02-19T16:24:39.153Z,2.45
2023-02-19T16:29:43.644Z,2.42
2023-02-19T16:34:50.672Z,1.98
2023-02-19T16:40:35.742Z,2.07
2023-02-19T16:45:42.828Z,1.94
2023-02-19T16:50:47.453Z,1.97
2023-02-19T16:55:53.656Z,1.86
2023-02-19T17:00:58.356Z,2.05
2023-02-19T17:06:02.756Z,2.17
2023-02-19T17:11:13.150Z,1.99
2023-02-19T17:16:19.849Z,1.58
2023-02-19T17:21:25.713Z,1.60
2023-02-19T17:26:33.619Z,1.66
2023-02-19T17:31:38.055Z,1.37
2023-02-19T17:36:45.601Z,1.41
2023-02-19T17:41:51.586Z,1.64
2023-02-19T17:46:56.466Z,1.48
2023-02-19T17:52:01.032Z,1.58
2023-02-19T17:57:06.817Z,1.53
2023-02-19T18:02:11.365Z,1.38
2023-02-19T18:07:15.699Z,1.81
2023-02-19T18:12:21.733Z,1.59
2023-02-19T18:17:28.413Z,1.44
2023-02-19T18:22:33.210Z,1.19
2023-02-19T18:27:39.734Z,1.17
2023-02-19T18:32:44.323Z,1.31
2023-02-19T18:37:52.822Z,1.34
2023-02-19T18:42:58.940Z,1.16
2023-02-19T18:48:03.465Z,1.37
2023-02-19T18:53:07.990Z,1.59
2023-02-19T18:58:13.920Z,1.10
2023-02-19T19:03:18.900Z,1.27
2023-02-19T19:08:23.410Z,1.51
2023-02-19T19:13:32.241Z,1.61
2023-02-19T19:18:38.371Z,1.50
2023-02-19T19:23:43.402Z,2.11
2023-02-19T19:28:49.701Z,1.59
2023-02-19T19:33:55.249Z,1.47
2023-02-19T19:38:59.775Z,1.71
2023-02-19T19:44:10.398Z,1.48
2023-02-19T19:49:19.755Z,1.64
2023-02-19T19:54:24.284Z,1.70
2023-02-19T19:59:30.218Z,1.69
2023-02-19T20:04:35.068Z,2.01
2023-02-19T20:09:40.621Z,1.76
2023-02-19T20:14:47.563Z,1.60
2023-02-19T20:19:52.974Z,1.41
2023-02-19T20:24:57.673Z,1.65
2023-02-19T20:30:03.997Z,1.93
2023-02-19T20:35:10.222Z,1.57
2023-02-19T20:40:18.396Z,1.92
2023-02-19T20:45:24.448Z,1.98
2023-02-19T20:50:30.374Z,1.71
2023-02-19T20:55:35.095Z,1.89
2023-02-19T21:00:41.049Z,1.54
2023-02-19T21:05:45.467Z,1.82
2023-02-19T21:10:49.850Z,1.89
2023-02-19T21:15:55.651Z,1.62
2023-02-19T21:21:00.680Z,1.51
2023-02-19T21:26:05.481Z,1.73
2023-02-19T21:31:11.307Z,1.57
2023-02-19T21:36:16.453Z,1.41
2023-02-19T21:41:20.805Z,1.24
2023-02-19T21:46:27.691Z,1.28
2023-02-19T21:51:34.089Z,1.20
2023-02-19T21:56:38.608Z,0.94
2023-02-19T22:01:44.889Z,0.96
2023-02-19T22:06:49.444Z,0.75
2023-02-19T22:11:53.917Z,0.67
2023-02-19T22:16:59.730Z,0.64
2023-02-19T22:22:05.198Z,0.66
2023-02-19T22:27:09.859Z,0.79
2023-02-19T22:32:15.793Z,0.42
2023-02-19T22:37:20.183Z,0.44
2023-02-19T22:42:25.420Z,0.56
2023-02-19T22:47:31.178Z,0.41
2023-02-19T22:52:35.194Z,0.58
2023-02-19T22:57:39.621Z,0.55
2023-02-19T23:02:46.820Z,0.28
2023-02-19T23:07:51.432Z,0.22
2023-02-19T23:12:55.949Z,0.35
2023-02-19T23:18:04.584Z,0.10
2023-02-19T23:23:08.846Z,0.28
2023-02-19T23:28:13.091Z,0.36
2023-02-19T23:33:19.188Z,0.05
2023-02-19T23:38:23.476Z,0.27
2023-02-19T23:43:27.818Z,0.18
2023-02-19T23:48:34.272Z,-0.01
2023-02-19T23:53:38.540Z,0.36
2023-02-19T23:58:42.845Z,0.19
